createdAt,value
2019-05-29T00:00:10.268Z,6.87
2019-05-29T00:02:38.954Z,6.45
2019-05-29T00:05:08.024Z,6.27
2019-05-29T00:07:36.525Z,6.20
2019-05-29T00:10:08.791Z,6.65
2019-05-29T00:12:37.113Z,6.97
2019-05-29T00:15:06.186Z,7.80
2019-05-29T00:17:34.939Z,8.25
2019-05-29T00:20:04.221Z,8.33
2019-05-29T00:22:34.201Z,9.48
2019-05-29T00:25:02.666Z,9.83
2019-05-29T00:27:31.109Z,11.12
2019-05-29T00:29:59.553Z,10.43
2019-05-29T00:32:28.034Z,6.22
2019-05-29T00:34:56.481Z,6.42
2019-05-29T00:37:24.997Z,4.87
2019-05-29T00:39:53.489Z,3.65
2019-05-29T00:42:22.007Z,3.20
2019-05-29T00:44:50.521Z,3.05
2019-05-29T00:47:18.997Z,3.22
2019-05-29T00:49:47.781Z,2.70
2019-05-29T00:52:16.641Z,3.20
2019-05-29T00:54:45.352Z,3.35
2019-05-29T00:57:15.228Z,3.58
2019-05-29T00:59:43.884Z,3.00
2019-05-29T01:02:13.599Z,2.58
2019-05-29T01:04:42.340Z,2.60
2019-05-29T01:07:12.195Z,2.83
2019-05-29T01:09:40.995Z,3.05
2019-05-29T01:12:10.732Z,8.10
2019-05-29T01:14:49.684Z,9.18
2019-05-29T01:17:09.724Z,12.93
2019-05-29T01:19:38.444Z,9.57
2019-05-29T01:22:06.894Z,10.90
2019-05-29T01:24:35.372Z,10.80
2019-05-29T01:27:03.816Z,4.00
2019-05-29T01:29:39.702Z,3.33
2019-05-29T01:32:08.148Z,3.05
2019-05-29T01:34:36.590Z,2.50
2019-05-29T01:37:05.136Z,2.40
2019-05-29T01:39:33.647Z,2.70
2019-05-29T01:42:02.094Z,2.12
2019-05-29T01:44:30.563Z,2.60
2019-05-29T01:46:59.002Z,1.80
2019-05-29T01:49:28.032Z,1.62
2019-05-29T01:51:56.694Z,2.02
2019-05-29T01:54:25.138Z,1.70
2019-05-29T01:56:53.575Z,1.77
2019-05-29T01:59:22.045Z,2.05
2019-05-29T02:01:50.480Z,2.00
2019-05-29T02:04:19.853Z,2.30
2019-05-29T02:06:48.796Z,1.90
2019-05-29T02:09:17.988Z,2.37
2019-05-29T02:11:46.553Z,2.37
2019-05-29T02:14:16.317Z,2.00
2019-05-29T02:16:44.953Z,2.10
2019-05-29T02:19:13.393Z,2.50
2019-05-29T02:21:41.859Z,2.47
2019-05-29T02:24:10.300Z,2.87
2019-05-29T02:26:38.736Z,2.50
2019-05-29T02:29:07.224Z,2.50
2019-05-29T02:31:35.674Z,2.40
2019-05-29T02:34:07.335Z,2.58
2019-05-29T02:36:34.517Z,2.60
2019-05-29T02:39:03.369Z,2.80
2019-05-29T02:41:32.354Z,2.27
2019-05-29T02:44:00.829Z,2.60
2019-05-29T02:46:30.148Z,2.33
2019-05-29T02:48:58.784Z,2.22
2019-05-29T02:51:28.402Z,2.33
2019-05-29T02:53:57.424Z,2.35
2019-05-29T02:56:27.025Z,2.30
2019-05-29T02:58:56.014Z,2.30
2019-05-29T03:01:25.567Z,1.85
2019-05-29T03:06:22.381Z,1.90
2019-05-29T03:08:52.942Z,2.20
2019-05-29T03:11:22.874Z,2.40
2019-05-29T03:13:51.817Z,2.20
2019-05-29T03:16:20.262Z,2.00
2019-05-29T03:18:48.702Z,2.00
2019-05-29T03:21:17.174Z,1.77
2019-05-29T03:23:45.691Z,1.80
2019-05-29T03:26:14.198Z,2.20
2019-05-29T03:28:42.665Z,1.80
2019-05-29T03:31:11.106Z,1.77
2019-05-29T03:33:48.362Z,2.12
2019-05-29T03:36:09.775Z,2.72
2019-05-29T03:38:38.570Z,2.70
2019-05-29T03:41:07.176Z,2.87
2019-05-29T03:43:36.225Z,2.92
2019-05-29T03:46:05.117Z,2.80
2019-05-29T03:48:34.451Z,2.60
2019-05-29T03:51:03.120Z,2.70
2019-05-29T03:53:32.047Z,2.47
2019-05-29T03:56:01.716Z,3.10
2019-05-29T03:58:30.992Z,4.97
2019-05-29T04:01:00.024Z,4.42
2019-05-29T04:03:28.959Z,3.75
2019-05-29T04:05:57.610Z,4.20
2019-05-29T04:08:27.399Z,4.05
2019-05-29T04:10:56.905Z,4.10
2019-05-29T04:13:27.319Z,4.28
2019-05-29T04:15:57.802Z,4.92
2019-05-29T04:18:27.603Z,4.40
2019-05-29T04:20:56.985Z,5.35
2019-05-29T04:23:29.945Z,5.40
2019-05-29T04:26:00.151Z,5.85
2019-05-29T04:28:30.209Z,5.80
2019-05-29T04:30:58.906Z,4.87
2019-05-29T04:33:28.173Z,5.17
2019-05-29T04:35:56.802Z,5.78
2019-05-29T04:38:25.246Z,5.65
2019-05-29T04:40:53.800Z,6.08
2019-05-29T04:43:22.242Z,5.60
2019-05-29T04:45:50.682Z,6.30
2019-05-29T04:48:19.161Z,6.50
2019-05-29T04:50:47.675Z,5.78
2019-05-29T04:53:16.115Z,6.62
2019-05-29T04:55:44.590Z,6.55
2019-05-29T04:58:13.029Z,6.55
2019-05-29T05:00:56.035Z,6.78
2019-05-29T05:03:11.672Z,7.53
2019-05-29T05:05:40.122Z,7.47
2019-05-29T05:08:08.639Z,7.20
2019-05-29T05:10:40.877Z,8.23
2019-05-29T05:13:09.557Z,7.65
2019-05-29T05:15:38.439Z,8.05
2019-05-29T05:18:07.565Z,8.45
2019-05-29T05:20:36.393Z,8.30
2019-05-29T05:23:05.436Z,8.30
2019-05-29T05:25:34.396Z,8.08
2019-05-29T05:28:02.917Z,9.18
2019-05-29T05:30:32.367Z,8.65
2019-05-29T05:33:01.001Z,8.20
2019-05-29T05:35:30.636Z,8.33
2019-05-29T05:37:59.273Z,8.38
2019-05-29T05:40:27.844Z,8.13
2019-05-29T05:42:56.441Z,7.92
2019-05-29T05:45:24.964Z,8.85
2019-05-29T05:47:57.310Z,8.05
2019-05-29T05:50:24.134Z,8.35
2019-05-29T05:52:52.744Z,7.78
2019-05-29T05:55:21.493Z,7.23
2019-05-29T05:57:49.932Z,7.03
2019-05-29T06:00:21.451Z,7.28
2019-05-29T06:02:52.186Z,6.65
2019-05-29T06:05:20.286Z,7.50
2019-05-29T06:07:48.789Z,7.25
2019-05-29T06:10:17.599Z,6.92
2019-05-29T06:12:46.053Z,7.22
2019-05-29T06:15:15.201Z,6.75
2019-05-29T06:17:57.331Z,6.95
2019-05-29T06:20:13.901Z,6.60
2019-05-29T06:22:43.662Z,7.05
2019-05-29T06:25:12.479Z,7.30
2019-05-29T06:27:41.413Z,6.10
2019-05-29T06:30:10.649Z,6.80
2019-05-29T06:32:39.471Z,7.45
2019-05-29T06:35:08.288Z,8.50
2019-05-29T06:37:37.569Z,8.23
2019-05-29T06:40:07.848Z,7.47
2019-05-29T06:42:37.704Z,7.30
2019-05-29T06:45:08.657Z,7.33
2019-05-29T06:47:38.625Z,7.42
2019-05-29T06:50:08.013Z,7.95
2019-05-29T06:52:37.964Z,6.85
2019-05-29T06:55:07.005Z,7.47
2019-05-29T06:57:36.033Z,7.30
2019-05-29T07:00:59.532Z,7.95
2019-05-29T07:03:30.399Z,7.50
2019-05-29T07:06:00.000Z,6.97
2019-05-29T07:10:58.046Z,6.70
2019-05-29T07:13:26.527Z,6.97
2019-05-29T07:15:55.006Z,7.03
2019-05-29T07:18:24.701Z,7.15
2019-05-29T07:20:53.145Z,7.67
2019-05-29T07:23:21.657Z,7.33
2019-05-29T07:25:50.179Z,7.22
2019-05-29T07:28:18.693Z,7.72
2019-05-29T07:30:53.538Z,6.22
2019-05-29T07:33:17.502Z,6.25
2019-05-29T07:35:46.149Z,6.20
2019-05-29T07:38:14.758Z,5.90
2019-05-29T07:40:45.098Z,7.15
2019-05-29T07:43:13.369Z,6.72
2019-05-29T07:45:42.215Z,5.72
2019-05-29T07:48:10.801Z,6.45
2019-05-29T07:50:40.086Z,5.72
2019-05-29T07:53:08.785Z,5.78
2019-05-29T07:55:38.314Z,6.40
2019-05-29T07:58:07.043Z,6.28
2019-05-29T08:00:48.196Z,5.67
2019-05-29T08:03:05.805Z,6.20
2019-05-29T08:06:07.847Z,6.33
2019-05-29T08:08:36.356Z,6.45
2019-05-29T08:11:04.869Z,6.20
2019-05-29T08:13:33.341Z,6.05
2019-05-29T08:16:03.293Z,5.92
2019-05-29T08:18:31.926Z,5.97
2019-05-29T08:21:02.678Z,5.60
2019-05-29T08:23:31.120Z,5.50
2019-05-29T08:25:59.642Z,5.90
2019-05-29T08:28:28.298Z,6.03
2019-05-29T08:30:56.804Z,6.47
2019-05-29T08:33:25.278Z,6.03
2019-05-29T08:35:59.883Z,5.90
2019-05-29T08:38:23.927Z,5.90
2019-05-29T08:40:52.363Z,5.60
2019-05-29T08:43:20.838Z,5.50
2019-05-29T08:45:49.719Z,5.72
2019-05-29T08:48:18.385Z,6.30
2019-05-29T08:50:47.785Z,6.15
2019-05-29T08:55:44.303Z,5.70
2019-05-29T08:58:12.860Z,5.97
2019-05-29T09:00:46.468Z,5.90
2019-05-29T09:03:11.485Z,6.95
2019-05-29T09:05:39.959Z,7.35
2019-05-29T09:08:08.404Z,6.70
2019-05-29T09:10:55.190Z,7.30
2019-05-29T09:13:23.627Z,7.35
2019-05-29T09:15:52.146Z,7.40
2019-05-29T09:18:21.656Z,7.28
2019-05-29T09:21:02.571Z,8.05
2019-05-29T09:23:20.977Z,6.95
2019-05-29T09:25:49.592Z,7.08
2019-05-29T09:31:02.482Z,6.65
2019-05-29T09:33:31.560Z,7.17
2019-05-29T09:36:00.407Z,5.05
2019-05-29T09:38:28.916Z,7.25
2019-05-29T09:40:57.429Z,7.15
2019-05-29T09:43:30.322Z,7.67
2019-05-29T09:45:56.098Z,6.78
2019-05-29T09:48:27.453Z,7.22
2019-05-29T09:50:54.714Z,7.17
2019-05-29T09:53:23.775Z,6.58
2019-05-29T09:55:53.728Z,6.60
2019-05-29T09:58:22.533Z,6.87
2019-05-29T10:01:09.939Z,6.78
2019-05-29T10:03:21.180Z,6.30
2019-05-29T10:05:49.625Z,5.70
2019-05-29T10:08:18.103Z,5.40
2019-05-29T10:10:46.594Z,6.00
2019-05-29T10:13:15.106Z,6.03
2019-05-29T10:15:43.739Z,5.92
2019-05-29T10:18:30.506Z,5.83
2019-05-29T10:20:42.503Z,6.72
2019-05-29T10:23:10.977Z,6.30
2019-05-29T10:25:39.822Z,5.90
2019-05-29T10:28:08.282Z,6.10
2019-05-29T10:30:36.755Z,5.92
2019-05-29T10:33:05.264Z,5.75
2019-05-29T10:35:33.721Z,5.67
2019-05-29T10:38:02.212Z,5.35
2019-05-29T10:40:30.794Z,5.42
2019-05-29T10:42:59.241Z,5.80
2019-05-29T10:45:27.746Z,6.00
2019-05-29T10:47:56.258Z,5.37
2019-05-29T10:50:24.702Z,5.78
2019-05-29T10:52:54.255Z,6.20
2019-05-29T10:55:24.071Z,6.00
2019-05-29T11:00:21.983Z,5.72
2019-05-29T11:02:53.106Z,6.50
2019-05-29T11:05:20.813Z,6.03
2019-05-29T11:07:49.700Z,6.10
2019-05-29T11:10:18.554Z,6.33
2019-05-29T11:12:48.312Z,6.40
2019-05-29T11:15:21.662Z,7.05
2019-05-29T11:17:49.105Z,6.55
2019-05-29T11:20:19.372Z,6.97
2019-05-29T11:22:47.861Z,6.40
2019-05-29T11:25:23.396Z,6.53
2019-05-29T11:27:48.378Z,6.95
2019-05-29T11:30:17.270Z,5.80
2019-05-29T11:32:47.734Z,5.95
2019-05-29T11:35:17.022Z,6.22
2019-05-29T11:40:14.097Z,5.65
2019-05-29T11:42:43.601Z,5.37
2019-05-29T11:45:14.732Z,5.95
2019-05-29T11:47:43.182Z,6.40
2019-05-29T11:50:19.335Z,5.85
2019-05-29T11:52:43.680Z,5.62
2019-05-29T11:55:12.755Z,5.92
2019-05-29T11:57:41.330Z,5.40
2019-05-29T12:00:19.613Z,5.62
2019-05-29T12:02:43.102Z,5.25
2019-05-29T12:05:12.384Z,5.65
2019-05-29T12:07:40.866Z,5.90
2019-05-29T12:10:09.935Z,5.17
2019-05-29T12:12:38.716Z,5.70
2019-05-29T12:15:14.438Z,5.60
2019-05-29T12:17:38.410Z,5.97
2019-05-29T12:20:26.491Z,5.78
2019-05-29T12:22:38.208Z,5.25
2019-05-29T12:25:07.746Z,5.85
2019-05-29T12:27:36.204Z,6.10
2019-05-29T12:30:11.268Z,5.53
2019-05-29T12:32:39.917Z,5.03
2019-05-29T12:35:09.329Z,5.08
2019-05-29T12:37:40.179Z,5.30
2019-05-29T12:40:09.142Z,5.03
2019-05-29T12:42:37.657Z,5.12
2019-05-29T12:45:12.117Z,5.90
2019-05-29T12:47:40.647Z,5.60
2019-05-29T12:50:11.162Z,5.65
2019-05-29T12:52:39.796Z,4.90
2019-05-29T12:55:08.873Z,4.70
2019-05-29T12:57:37.390Z,4.83
2019-05-29T13:00:14.817Z,4.78
2019-05-29T13:02:43.430Z,4.85
2019-05-29T13:05:20.155Z,4.57
2019-05-29T13:07:44.198Z,4.83
2019-05-29T13:10:29.447Z,4.60
2019-05-29T13:12:44.182Z,4.05
2019-05-29T13:15:14.788Z,4.90
2019-05-29T13:17:43.388Z,4.42
2019-05-29T13:20:20.955Z,5.07
2019-05-29T13:22:43.355Z,5.05
2019-05-29T13:25:13.490Z,3.98
2019-05-29T13:27:42.178Z,4.50
2019-05-29T13:30:12.690Z,4.20
2019-05-29T13:32:41.288Z,4.12
2019-05-29T13:35:10.649Z,4.37
2019-05-29T13:37:39.156Z,4.03
2019-05-29T13:40:08.991Z,4.03
2019-05-29T13:42:37.605Z,4.05
2019-05-29T13:45:16.782Z,3.72
2019-05-29T13:47:37.497Z,3.55
2019-05-29T13:50:12.320Z,3.87
2019-05-29T13:52:40.027Z,4.05
2019-05-29T13:55:09.305Z,3.33
2019-05-29T13:57:39.974Z,4.30
2019-05-29T14:00:30.570Z,3.58
2019-05-29T14:02:40.697Z,3.37
2019-05-29T14:05:10.168Z,3.72
2019-05-29T14:07:38.789Z,3.52
2019-05-29T14:10:07.885Z,3.40
2019-05-29T14:12:38.877Z,3.42
2019-05-29T14:20:06.744Z,3.25
2019-05-29T14:22:35.268Z,3.40
2019-05-29T14:25:05.892Z,3.30
2019-05-29T14:27:34.393Z,3.45
2019-05-29T14:30:05.666Z,3.20
2019-05-29T14:32:34.124Z,3.20
2019-05-29T14:35:09.150Z,2.92
2019-05-29T14:37:37.738Z,3.10
2019-05-29T14:40:07.921Z,3.12
2019-05-29T14:42:36.517Z,3.12
2019-05-29T14:45:10.126Z,3.60
2019-05-29T14:47:38.951Z,2.90
2019-05-29T14:50:08.768Z,3.17
2019-05-29T14:52:37.688Z,2.85
2019-05-29T14:55:09.369Z,3.00
2019-05-29T14:57:38.005Z,2.80
2019-05-29T15:00:18.865Z,3.00
2019-05-29T15:02:37.959Z,2.80
2019-05-29T15:05:09.615Z,2.90
2019-05-29T15:07:38.387Z,2.70
2019-05-29T15:10:19.701Z,2.63
2019-05-29T15:12:39.360Z,2.70
2019-05-29T15:15:13.148Z,2.67
2019-05-29T15:17:41.263Z,3.05
2019-05-29T15:20:12.632Z,2.40
2019-05-29T15:22:41.953Z,2.70
2019-05-29T15:25:18.413Z,2.47
2019-05-29T15:27:41.066Z,2.33
2019-05-29T15:30:11.828Z,2.50
2019-05-29T15:32:41.010Z,3.00
2019-05-29T15:35:14.347Z,2.90
2019-05-29T15:37:40.710Z,2.75
2019-05-29T15:40:10.907Z,2.93
2019-05-29T15:42:39.556Z,2.50
2019-05-29T15:45:09.834Z,2.83
2019-05-29T15:47:38.630Z,2.67
2019-05-29T15:50:11.440Z,2.47
2019-05-29T15:52:42.906Z,2.50
2019-05-29T15:55:24.838Z,3.05
2019-05-29T15:57:42.584Z,3.17
2019-05-29T16:00:13.894Z,2.47
2019-05-29T16:02:50.870Z,2.25
2019-05-29T16:05:19.410Z,2.37
2019-05-29T16:07:57.051Z,2.72
2019-05-29T16:10:23.178Z,2.52
2019-05-29T16:12:51.647Z,2.90
2019-05-29T16:15:20.816Z,3.20
2019-05-29T16:17:49.317Z,3.02
2019-05-29T16:20:18.694Z,3.40
2019-05-29T16:22:47.327Z,3.40
2019-05-29T16:25:16.968Z,3.07
2019-05-29T16:27:45.702Z,3.35
2019-05-29T16:30:17.939Z,2.98
2019-05-29T16:32:46.460Z,3.10
2019-05-29T16:35:15.282Z,2.33
2019-05-29T16:37:43.736Z,2.75
2019-05-29T16:40:15.931Z,2.65
2019-05-29T16:42:44.878Z,2.72
2019-05-29T16:45:14.274Z,2.92
2019-05-29T16:50:12.820Z,2.77
2019-05-29T16:52:41.592Z,2.72
2019-05-29T16:55:10.595Z,2.67
2019-05-29T16:57:39.135Z,2.75
2019-05-29T17:00:09.427Z,3.00
2019-05-29T17:02:38.677Z,2.75
2019-05-29T17:05:07.792Z,2.95
2019-05-29T17:07:36.230Z,3.05
2019-05-29T17:10:06.862Z,3.40
2019-05-29T17:12:35.336Z,2.87
2019-05-29T17:15:05.981Z,2.90
2019-05-29T17:17:34.494Z,2.75
2019-05-29T17:20:04.541Z,3.42
2019-05-29T17:22:33.059Z,3.20
2019-05-29T17:25:01.499Z,2.70
2019-05-29T17:27:30.058Z,3.75
2019-05-29T17:29:58.499Z,3.45
2019-05-29T17:32:26.937Z,3.92
2019-05-29T17:34:55.485Z,3.65
2019-05-29T17:37:25.098Z,3.55
2019-05-29T17:39:53.824Z,4.00
2019-05-29T17:42:22.622Z,4.17
2019-05-29T17:44:51.260Z,3.83
2019-05-29T17:47:19.751Z,3.40
2019-05-29T17:49:48.268Z,4.20
2019-05-29T17:52:17.679Z,4.05
